Main page
METAR-TAF:

METAR-TAF

Airports :

Preston, England

Warton Aerodrome

latitude: 53-44-42N, longitude: 2-53-02W, elevation: 17 m

Current weather observation

The report was made 1 hour and 59 minutes ago, at 15:50 UTC
Wind 10 kt from the West
Temperature 11°C
Humidity 71%
Pressure 1015 hPa
Visibility 10 km or more
Few clouds at a height of 2300 ft

METAR: EGNO 281550Z 26010KT 9999 FEW023 11/06 Q1015

Time: 18:49 (17:49 UTC)

Forecast

The report was made 3 hours and 52 minutes ago, at 13:57 UTC
Forecast valid from 28 at 15 UTC to 28 at 18 UTC
Wind 7 kt from the West
Visibility 10 km or more
Scattered clouds at a height of 2500 ft

TAF: EGNO 281357Z 2815/2818 26007KT 9999 SCT025

Weather observations and forecasts of more than 4000 airports (METAR and TAF reports).

The available stations are represented by yellow and red dots on the map.

Hover mouse over dot to see the name of the station.

Then click to see weather observations and forecasts.

To change the map : click on the green buttons with a black cross to zoom in, on the green button with a dash to zoom out, or on the green arrows for adjacent maps.


METAR-TAF: